Historyczne dane pomiarowe

Dodano dane terminowe – wersja testowa.

Dane z okresu 1951-2019

Wersja bazy: 1.34 [2019-03-16, lista zmian], aktualizacja planowana na 2019-04-15

Dane meteo z obszaru Polski uzyskane na podstawie danych udostępnionych przez Instytut Meteorologii i Gospodarki Wodnej – Państwowy Instytut Badawczy.

 

Wybierz Datę:    

       

TemperaturaWilgotnośćZachmurzenieWiatrCiśnienieWidzialnośćZjawiska
 Data    tng td wb rh cc ccl cl cm ch dir g1 g2 mslp ppp      
1999-06-23 00:00:00 17.0--- 15.4 16.090wxwxwx0wx--1006.6 984.8 1.2---wxw1
1999-06-23 01:00:00 16.8--- 15.5 16.092wxwxwx2wx--1006.6 984.8----wx
1999-06-23 02:00:00 16.0--- 14.5 15.191wxwxwx3wx--1006.9 985.1----wx
1999-06-23 03:00:00 17.2--- 15.3 16.088wxwxwx3wx--1007.1 985.3----wx
1999-06-23 04:00:00 17.2--- 15.9 16.492wxwxwx0wx--1007.4 985.6----wx
1999-06-23 05:00:00 17.4--- 16.6 16.995wxwxwx1wx--1007.9 986.1----wx
1999-06-23 06:00:00 17.6--- 17.3 17.498wxwxwx2wx--1008.3 986.6 1.8---wxw1
1999-06-23 07:00:00 18.6--- 17.4 17.893wxwxwx2wx--1008.7 987.0----wx
1999-06-23 08:00:00 16.4--- 16.1 16.298wxwxwx3wx--1010.1 988.2----wx
1999-06-23 09:00:00 15.4--- 14.7 15.096wxwxwx4wx--1010.8 988.8----wxw1
1999-06-23 10:00:00 14.4--- 13.7 14.096wxwxwx7wx--1011.5 989.4----wxw1
1999-06-23 11:00:00 14.6--- 13.3 13.892wxwxwx6wx--1012.0 989.9----wxw1
1999-06-23 12:00:00 14.3--- 13.1 13.693wxwxwx6wx--1012.7 990.6 0.0---wxw1
1999-06-23 13:00:00 14.2--- 12.5 13.289wxwxwx6wx--1013.3 991.2----wx
1999-06-23 14:00:00 14.2--- 12.1 13.087wxwxwx5wx--1013.9 991.8----wx
1999-06-23 15:00:00 13.8--- 12.1 12.889wxwxwx7wx--1014.5 992.3----wx
1999-06-23 16:00:00 13.8--- 12.1 12.889wxwxwx7wx--1014.8 992.6----wx
1999-06-23 17:00:00 13.0--- 12.0 12.493wxwxwxwx7wx--1015.7 993.4----wx
1999-06-23 18:00:00 12.6--- 11.5 12.093wxwxwxwx5wx--1016.2 993.9 0.9---wx
1999-06-23 19:00:00 12.0--- 11.1 11.594wxwxwxwx6wx--1016.9 994.5----wxw1
1999-06-23 20:00:00 11.8--- 11.1 11.495wxwxwxwx6wx--1017.4 995.0----wxw1
1999-06-23 21:00:00 11.8--- 11.3 11.597wxwxwxwx5wx--1018.2 995.8----wxw1
1999-06-23 22:00:00 11.8--- 11.3 11.597wxwxwxwx3wx--1018.2 995.8----wxw1
1999-06-23 23:00:00 11.5--- 10.6 11.094wxwxwxwx4wx--1018.1 995.7----wxw1

 

Źródłem pochodzenia danych jest Instytut Meteorologii i Gospodarki Wodnej – Państwowy Instytut Badawczy. Dane Instytutu Meteorologii i Gospodarki Wodnej – Państwowego Instytutu Badawczego zostały przetworzone.

Dane źródłowe można odnaleźć na stronie https://dane.imgw.pl